createdAt,value
2023-02-25T00:00:25.936Z,490.00
2023-02-25T00:01:25.895Z,490.00
2023-02-25T00:02:25.959Z,489.00
2023-02-25T00:03:25.892Z,488.00
2023-02-25T00:04:25.875Z,488.00
2023-02-25T00:05:25.834Z,489.00
2023-02-25T00:06:25.791Z,487.00
2023-02-25T00:07:25.789Z,488.00
2023-02-25T00:08:25.777Z,491.00
2023-02-25T00:09:25.767Z,490.00
2023-02-25T00:10:25.787Z,492.00
2023-02-25T00:11:25.716Z,493.00
2023-02-25T00:12:25.667Z,492.00
2023-02-25T00:13:25.656Z,492.00
2023-02-25T00:14:25.677Z,492.00
2023-02-25T00:15:25.625Z,491.00
2023-02-25T00:16:26.059Z,491.00
2023-02-25T00:17:25.553Z,490.00
2023-02-25T00:18:25.563Z,488.00
2023-02-25T00:19:25.525Z,488.00
2023-02-25T00:20:25.534Z,489.00
2023-02-25T00:21:25.475Z,488.00
2023-02-25T00:22:25.468Z,487.00
2023-02-25T00:23:25.413Z,488.00
2023-02-25T00:24:25.404Z,489.00
2023-02-25T00:25:25.395Z,490.00
2023-02-25T00:26:25.485Z,492.00
2023-02-25T00:27:25.310Z,493.00
2023-02-25T00:28:25.294Z,492.00
2023-02-25T00:29:25.271Z,494.00
2023-02-25T00:30:25.252Z,494.00
2023-02-25T00:31:25.353Z,494.00
2023-02-25T00:32:25.465Z,493.00
2023-02-25T00:33:25.190Z,493.00
2023-02-25T00:34:25.152Z,494.00
2023-02-25T00:35:25.153Z,497.00
2023-02-25T00:36:25.385Z,497.00
2023-02-25T00:37:25.089Z,497.00
2023-02-25T00:38:25.064Z,496.00
2023-02-25T00:39:25.046Z,493.00
2023-02-25T00:40:25.031Z,493.00
2023-02-25T00:41:25.016Z,492.00
2023-02-25T00:42:25.018Z,492.00
2023-02-25T00:43:24.988Z,491.00
2023-02-25T00:44:24.961Z,493.00
2023-02-25T00:45:24.986Z,496.00
2023-02-25T00:46:25.325Z,498.00
2023-02-25T00:47:24.895Z,498.00
2023-02-25T00:48:24.861Z,498.00
2023-02-25T00:49:32.138Z,495.00
2023-02-25T00:50:25.852Z,493.00
2023-02-25T00:51:24.816Z,493.00
2023-02-25T00:52:24.817Z,493.00
2023-02-25T00:53:24.776Z,494.00
2023-02-25T00:54:24.755Z,498.00
2023-02-25T00:55:24.751Z,498.00
2023-02-25T00:56:25.022Z,497.00
2023-02-25T00:57:24.709Z,494.00
2023-02-25T00:58:24.676Z,494.00
2023-02-25T00:59:24.688Z,494.00
2023-02-25T01:00:24.656Z,493.00
2023-02-25T01:01:24.646Z,493.00
2023-02-25T01:02:24.687Z,494.00
2023-02-25T01:03:24.596Z,492.00
2023-02-25T01:04:24.568Z,494.00
2023-02-25T01:05:24.556Z,490.00
2023-02-25T01:06:24.745Z,490.00
2023-02-25T01:07:24.522Z,490.00
2023-02-25T01:08:24.491Z,489.00
2023-02-25T01:09:24.470Z,488.00
2023-02-25T01:10:24.456Z,489.00
2023-02-25T01:11:24.452Z,490.00
2023-02-25T01:12:24.416Z,490.00
2023-02-25T01:13:24.370Z,489.00
2023-02-25T01:14:24.342Z,488.00
2023-02-25T01:15:24.553Z,487.00
2023-02-25T01:16:24.889Z,491.00
2023-02-25T01:17:24.295Z,490.00
2023-02-25T01:18:24.273Z,486.00
2023-02-25T01:19:24.241Z,486.00
2023-02-25T01:20:24.226Z,489.00
2023-02-25T01:21:24.203Z,489.00
2023-02-25T01:22:24.189Z,487.00
2023-02-25T01:23:24.144Z,489.00
2023-02-25T01:24:24.118Z,491.00
2023-02-25T01:25:24.089Z,490.00
2023-02-25T01:26:24.407Z,491.00
2023-02-25T01:27:24.037Z,493.00
2023-02-25T01:28:23.996Z,493.00
2023-02-25T01:29:23.988Z,493.00
2023-02-25T01:30:23.963Z,491.00
2023-02-25T01:31:24.052Z,491.00
2023-02-25T01:32:24.007Z,491.00
2023-02-25T01:33:23.893Z,491.00
2023-02-25T01:34:23.864Z,487.00
2023-02-25T01:35:23.865Z,488.00
2023-02-25T01:36:24.364Z,490.00
2023-02-25T01:37:23.794Z,488.00
2023-02-25T01:38:23.776Z,487.00
2023-02-25T01:39:25.799Z,484.00
2023-02-25T01:40:23.865Z,483.00
2023-02-25T01:41:23.857Z,483.00
2023-02-25T01:42:23.824Z,485.00
2023-02-25T01:43:23.801Z,484.00
2023-02-25T01:44:23.815Z,483.00
2023-02-25T01:45:23.772Z,481.00
2023-02-25T01:46:24.208Z,481.00
2023-02-25T01:47:23.760Z,481.00
2023-02-25T01:48:23.659Z,482.00
2023-02-25T01:49:23.673Z,482.00
2023-02-25T01:50:23.621Z,479.00
2023-02-25T01:51:23.629Z,479.00
2023-02-25T01:52:23.574Z,480.00
2023-02-25T01:53:23.585Z,480.00
2023-02-25T01:54:23.597Z,480.00
2023-02-25T01:55:23.646Z,481.00
2023-02-25T01:56:24.045Z,481.00
2023-02-25T01:57:23.666Z,480.00
2023-02-25T01:58:23.635Z,478.00
2023-02-25T01:59:23.588Z,479.00
2023-02-25T02:00:23.560Z,483.00
2023-02-25T02:01:23.546Z,484.00
2023-02-25T02:02:23.569Z,484.00
2023-02-25T02:03:23.464Z,485.00
2023-02-25T02:04:23.491Z,483.00
2023-02-25T02:05:23.513Z,483.00
2023-02-25T02:06:23.956Z,483.00
2023-02-25T02:07:23.558Z,483.00
2023-02-25T02:08:23.518Z,481.00
2023-02-25T02:09:23.484Z,481.00
2023-02-25T02:10:23.452Z,482.00
2023-02-25T02:11:23.434Z,481.00
2023-02-25T02:12:23.416Z,482.00
2023-02-25T02:13:23.416Z,481.00
2023-02-25T02:14:23.449Z,480.00
2023-02-25T02:15:23.478Z,481.00
2023-02-25T02:16:23.861Z,482.00
2023-02-25T02:17:23.501Z,482.00
2023-02-25T02:18:23.469Z,482.00
2023-02-25T02:19:23.472Z,484.00
2023-02-25T02:20:23.429Z,483.00
2023-02-25T02:21:23.401Z,480.00
2023-02-25T02:22:23.392Z,481.00
2023-02-25T02:23:23.376Z,483.00
2023-02-25T02:24:23.389Z,483.00
2023-02-25T02:25:23.423Z,483.00
2023-02-25T02:26:23.869Z,482.00
2023-02-25T02:27:23.445Z,483.00
2023-02-25T02:28:23.383Z,484.00
2023-02-25T02:29:23.362Z,483.00
2023-02-25T02:30:23.338Z,482.00
2023-02-25T02:31:23.364Z,483.00
2023-02-25T02:32:23.537Z,481.00
2023-02-25T02:33:23.250Z,480.00
2023-02-25T02:34:23.233Z,478.00
2023-02-25T02:35:23.215Z,480.00
2023-02-25T02:36:23.523Z,479.00
2023-02-25T02:37:23.154Z,477.00
2023-02-25T02:38:23.121Z,479.00
2023-02-25T02:39:23.087Z,478.00
2023-02-25T02:40:23.070Z,476.00
2023-02-25T02:41:23.031Z,475.00
2023-02-25T02:42:23.031Z,473.00
2023-02-25T02:43:22.970Z,466.00
2023-02-25T02:44:22.965Z,450.00
2023-02-25T02:45:23.049Z,447.00
2023-02-25T02:46:23.243Z,443.00
2023-02-25T02:47:22.889Z,441.00
2023-02-25T02:48:22.859Z,442.00
2023-02-25T02:49:22.898Z,439.00
2023-02-25T02:50:22.824Z,436.00
2023-02-25T02:51:22.811Z,433.00
2023-02-25T02:52:22.780Z,433.00
2023-02-25T02:53:22.742Z,431.00
2023-02-25T02:54:22.741Z,427.00
2023-02-25T02:55:22.712Z,424.00
2023-02-25T02:56:23.083Z,423.00
2023-02-25T02:57:22.674Z,420.00
2023-02-25T02:58:22.671Z,417.00
2023-02-25T02:59:22.734Z,417.00
2023-02-25T03:00:22.603Z,413.00
2023-02-25T03:01:22.645Z,414.00
2023-02-25T03:02:22.607Z,414.00
2023-02-25T03:03:22.539Z,412.00
2023-02-25T03:04:22.649Z,412.00
2023-02-25T03:05:22.501Z,410.00
2023-02-25T03:06:22.880Z,406.00
2023-02-25T03:07:22.465Z,405.00
2023-02-25T03:08:22.435Z,409.00
2023-02-25T03:09:22.431Z,407.00
2023-02-25T03:10:22.385Z,404.00
2023-02-25T03:11:22.366Z,404.00
2023-02-25T03:12:22.356Z,401.00
2023-02-25T03:13:22.367Z,399.00
2023-02-25T03:14:22.319Z,395.00
2023-02-25T03:15:22.280Z,397.00
2023-02-25T03:16:22.591Z,394.00
2023-02-25T03:17:22.263Z,392.00
2023-02-25T03:18:22.268Z,391.00
2023-02-25T03:19:22.224Z,391.00
2023-02-25T03:20:22.201Z,392.00
2023-02-25T03:21:22.195Z,390.00
2023-02-25T03:22:22.226Z,391.00
2023-02-25T03:23:22.171Z,390.00
2023-02-25T03:24:22.138Z,389.00
2023-02-25T03:25:22.124Z,388.00
2023-02-25T03:26:22.365Z,388.00
2023-02-25T03:27:22.106Z,387.00
2023-02-25T03:28:22.084Z,388.00
2023-02-25T03:29:22.058Z,389.00
2023-02-25T03:30:22.050Z,389.00
2023-02-25T03:31:22.060Z,391.00
2023-02-25T03:32:22.104Z,391.00
2023-02-25T03:33:22.052Z,390.00
2023-02-25T03:34:22.013Z,391.00
2023-02-25T03:35:22.004Z,389.00
2023-02-25T03:36:22.341Z,391.00
2023-02-25T03:37:21.995Z,393.00
2023-02-25T03:38:21.960Z,392.00
2023-02-25T03:39:21.953Z,389.00
2023-02-25T03:40:21.920Z,389.00
2023-02-25T03:41:21.936Z,389.00
2023-02-25T03:42:21.927Z,386.00
2023-02-25T03:43:21.921Z,390.00
2023-02-25T03:44:21.905Z,389.00
2023-02-25T03:45:21.868Z,389.00
2023-02-25T03:46:22.377Z,387.00
2023-02-25T03:47:21.841Z,386.00
2023-02-25T03:48:21.846Z,387.00
2023-02-25T03:49:21.850Z,386.00
2023-02-25T03:50:21.813Z,388.00
2023-02-25T03:51:21.785Z,389.00
2023-02-25T03:52:21.791Z,391.00
2023-02-25T03:53:21.778Z,390.00
2023-02-25T03:54:21.727Z,391.00
2023-02-25T03:55:21.710Z,391.00
2023-02-25T03:56:22.079Z,391.00
2023-02-25T03:57:21.683Z,393.00
2023-02-25T03:58:21.728Z,391.00
2023-02-25T03:59:21.675Z,390.00
2023-02-25T04:00:21.649Z,390.00
2023-02-25T04:01:21.662Z,390.00
2023-02-25T04:02:21.657Z,391.00
2023-02-25T04:03:21.641Z,390.00
2023-02-25T04:04:21.662Z,390.00
2023-02-25T04:05:21.601Z,392.00
2023-02-25T04:06:21.867Z,392.00
2023-02-25T04:07:21.570Z,392.00
2023-02-25T04:08:21.576Z,390.00
2023-02-25T04:09:21.586Z,389.00
2023-02-25T04:10:21.546Z,388.00
2023-02-25T04:11:21.511Z,388.00
2023-02-25T04:12:21.506Z,384.00
2023-02-25T04:13:21.506Z,384.00
2023-02-25T04:14:21.497Z,384.00
2023-02-25T04:15:21.481Z,386.00
2023-02-25T04:16:21.794Z,385.00
2023-02-25T04:17:21.451Z,384.00
2023-02-25T04:18:21.433Z,386.00
2023-02-25T04:19:21.443Z,385.00
2023-02-25T04:20:21.397Z,385.00
2023-02-25T04:21:21.395Z,387.00
2023-02-25T04:22:21.424Z,383.00
2023-02-25T04:23:21.410Z,385.00
2023-02-25T04:24:21.387Z,386.00
2023-02-25T04:25:21.377Z,386.00
2023-02-25T04:26:21.550Z,385.00
2023-02-25T04:27:21.350Z,386.00
2023-02-25T04:28:21.307Z,386.00
2023-02-25T04:29:21.332Z,385.00
2023-02-25T04:30:21.335Z,383.00
2023-02-25T04:31:21.437Z,383.00
2023-02-25T04:32:21.388Z,382.00
2023-02-25T04:33:21.314Z,382.00
2023-02-25T04:34:21.282Z,382.00
2023-02-25T04:35:21.279Z,383.00
2023-02-25T04:36:21.492Z,383.00
2023-02-25T04:37:21.248Z,386.00
2023-02-25T04:38:21.215Z,386.00
2023-02-25T04:39:21.195Z,386.00
2023-02-25T04:40:21.173Z,387.00
2023-02-25T04:41:21.140Z,389.00
2023-02-25T04:42:21.148Z,391.00
2023-02-25T04:43:21.120Z,389.00
2023-02-25T04:44:21.158Z,386.00
2023-02-25T04:45:21.066Z,384.00
2023-02-25T04:46:21.572Z,383.00
2023-02-25T04:47:21.033Z,384.00
2023-02-25T04:48:21.033Z,386.00
2023-02-25T04:49:20.998Z,385.00
2023-02-25T04:50:21.032Z,384.00
2023-02-25T04:51:20.959Z,384.00
2023-02-25T04:52:20.946Z,385.00
2023-02-25T04:53:20.938Z,387.00
2023-02-25T04:54:20.910Z,386.00
2023-02-25T04:55:20.915Z,384.00
2023-02-25T04:56:21.010Z,382.00
2023-02-25T04:57:20.858Z,384.00
2023-02-25T04:58:20.871Z,383.00
2023-02-25T04:59:20.851Z,383.00
2023-02-25T05:00:20.828Z,384.00
2023-02-25T05:01:20.865Z,381.00
2023-02-25T05:02:20.813Z,383.00
2023-02-25T05:03:20.819Z,384.00
2023-02-25T05:04:20.774Z,383.00
2023-02-25T05:05:20.764Z,383.00
2023-02-25T05:06:20.866Z,384.00
2023-02-25T05:07:20.734Z,386.00
2023-02-25T05:08:20.715Z,386.00
2023-02-25T05:09:20.693Z,385.00
2023-02-25T05:10:20.699Z,383.00
2023-02-25T05:11:20.670Z,384.00
2023-02-25T05:12:20.657Z,382.00
2023-02-25T05:13:20.631Z,380.00
2023-02-25T05:14:20.632Z,378.00
2023-02-25T05:15:20.603Z,378.00
2023-02-25T05:16:20.689Z,378.00
2023-02-25T05:17:20.565Z,379.00
2023-02-25T05:18:20.613Z,381.00
2023-02-25T05:19:20.554Z,381.00
2023-02-25T05:20:20.583Z,380.00
2023-02-25T05:21:20.528Z,382.00
2023-02-25T05:22:20.526Z,383.00
2023-02-25T05:23:20.526Z,384.00
2023-02-25T05:24:20.516Z,385.00
2023-02-25T05:25:20.494Z,383.00
2023-02-25T05:26:20.758Z,381.00
2023-02-25T05:27:20.460Z,381.00
2023-02-25T05:28:20.439Z,381.00
2023-02-25T05:29:20.436Z,381.00
2023-02-25T05:30:20.429Z,381.00
2023-02-25T05:31:20.529Z,380.00
2023-02-25T05:32:20.553Z,382.00
2023-02-25T05:33:20.379Z,385.00
2023-02-25T05:34:20.379Z,383.00
2023-02-25T05:35:20.390Z,383.00
2023-02-25T05:36:20.426Z,382.00
2023-02-25T05:37:20.318Z,380.00
2023-02-25T05:38:20.308Z,379.00
2023-02-25T05:39:20.276Z,376.00
2023-02-25T05:40:20.284Z,377.00
2023-02-25T05:41:20.277Z,378.00
2023-02-25T05:42:20.250Z,379.00
2023-02-25T05:43:20.266Z,380.00
2023-02-25T05:44:20.232Z,379.00
2023-02-25T05:45:20.232Z,379.00
2023-02-25T05:46:20.298Z,384.00
2023-02-25T05:47:20.193Z,378.00
2023-02-25T05:48:20.194Z,378.00
2023-02-25T05:49:20.192Z,378.00
2023-02-25T05:50:20.186Z,381.00
2023-02-25T05:51:20.142Z,380.00
2023-02-25T05:52:20.152Z,382.00
2023-02-25T05:53:20.114Z,379.00
2023-02-25T05:54:20.112Z,380.00
2023-02-25T05:55:20.118Z,381.00
2023-02-25T05:56:20.073Z,381.00
2023-02-25T05:57:20.082Z,382.00
2023-02-25T05:58:20.056Z,384.00
2023-02-25T05:59:20.042Z,385.00
2023-02-25T06:00:20.013Z,383.00
2023-02-25T06:01:20.020Z,380.00
2023-02-25T06:02:20.074Z,380.00
2023-02-25T06:03:20.035Z,380.00
2023-02-25T06:04:19.959Z,377.00
2023-02-25T06:05:19.951Z,377.00
2023-02-25T06:06:19.954Z,378.00
2023-02-25T06:07:19.925Z,381.00
2023-02-25T06:08:19.939Z,382.00
2023-02-25T06:09:19.904Z,381.00
2023-02-25T06:10:19.896Z,379.00
2023-02-25T06:11:19.906Z,378.00
2023-02-25T06:12:19.869Z,381.00
2023-02-25T06:13:19.858Z,383.00
2023-02-25T06:14:19.884Z,384.00
2023-02-25T06:15:19.844Z,383.00
2023-02-25T06:16:19.895Z,382.00
2023-02-25T06:17:19.806Z,383.00
2023-02-25T06:18:19.785Z,385.00
2023-02-25T06:19:19.782Z,385.00
2023-02-25T06:20:19.776Z,386.00
2023-02-25T06:21:19.808Z,386.00
2023-02-25T06:22:19.769Z,386.00
2023-02-25T06:23:19.745Z,387.00
2023-02-25T06:24:19.736Z,386.00
2023-02-25T06:25:19.731Z,387.00
2023-02-25T06:26:19.726Z,387.00
2023-02-25T06:27:19.673Z,386.00
2023-02-25T06:28:19.656Z,382.00
2023-02-25T06:29:19.673Z,381.00
2023-02-25T06:30:19.635Z,383.00
2023-02-25T06:31:19.722Z,384.00
2023-02-25T06:32:19.767Z,386.00
2023-02-25T06:33:19.560Z,387.00
2023-02-25T06:34:19.543Z,386.00
2023-02-25T06:35:19.539Z,388.00
2023-02-25T06:36:19.531Z,386.00
2023-02-25T06:37:19.502Z,386.00
2023-02-25T06:38:19.468Z,388.00
2023-02-25T06:39:19.491Z,388.00
2023-02-25T06:40:19.448Z,388.00
2023-02-25T06:41:19.454Z,386.00
2023-02-25T06:42:19.442Z,384.00
2023-02-25T06:43:19.436Z,384.00
2023-02-25T06:44:19.395Z,383.00
2023-02-25T06:45:19.368Z,384.00
2023-02-25T06:46:19.407Z,384.00
2023-02-25T06:47:19.346Z,384.00
2023-02-25T06:48:19.326Z,384.00
2023-02-25T06:49:19.319Z,386.00
2023-02-25T06:50:19.337Z,386.00
2023-02-25T06:51:19.286Z,388.00
2023-02-25T06:52:19.290Z,387.00
2023-02-25T06:53:19.254Z,389.00
2023-02-25T06:54:19.237Z,388.00
2023-02-25T06:55:19.217Z,386.00
2023-02-25T06:56:19.208Z,387.00
2023-02-25T06:57:19.187Z,385.00
2023-02-25T06:58:19.151Z,384.00
2023-02-25T06:59:19.161Z,385.00
2023-02-25T07:00:19.111Z,386.00
2023-02-25T07:01:19.172Z,386.00
2023-02-25T07:02:19.104Z,385.00
2023-02-25T07:03:19.089Z,385.00
2023-02-25T07:04:19.081Z,382.00
2023-02-25T07:05:19.041Z,380.00
2023-02-25T07:06:19.019Z,380.00
2023-02-25T07:07:19.037Z,383.00
2023-02-25T07:08:18.992Z,382.00
2023-02-25T07:09:18.968Z,381.00
2023-02-25T07:10:18.962Z,379.00
2023-02-25T07:11:18.926Z,380.00
2023-02-25T07:12:18.918Z,379.00
2023-02-25T07:13:18.886Z,379.00
2023-02-25T07:14:18.869Z,380.00
2023-02-25T07:15:18.841Z,380.00
2023-02-25T07:16:18.994Z,379.00
2023-02-25T07:17:18.813Z,380.00
2023-02-25T07:18:18.800Z,380.00
2023-02-25T07:19:18.767Z,380.00
2023-02-25T07:20:18.760Z,383.00
2023-02-25T07:21:18.758Z,385.00
2023-02-25T07:22:18.746Z,384.00
2023-02-25T07:23:18.720Z,386.00
2023-02-25T07:24:18.704Z,384.00
2023-02-25T07:25:18.745Z,383.00
2023-02-25T07:26:18.671Z,386.00
2023-02-25T07:27:18.674Z,385.00
2023-02-25T07:28:18.626Z,384.00
2023-02-25T07:29:18.614Z,384.00
2023-02-25T07:30:18.586Z,384.00
2023-02-25T07:31:18.781Z,385.00
2023-02-25T07:32:18.820Z,384.00
2023-02-25T07:33:18.562Z,380.00
2023-02-25T07:34:18.529Z,379.00
2023-02-25T07:35:18.533Z,377.00
2023-02-25T07:36:18.496Z,379.00
2023-02-25T07:37:18.474Z,379.00
2023-02-25T07:38:18.473Z,378.00
2023-02-25T07:39:18.460Z,374.00
2023-02-25T07:40:18.438Z,378.00
2023-02-25T07:41:18.442Z,378.00
2023-02-25T07:42:18.404Z,379.00
2023-02-25T07:43:18.429Z,380.00
2023-02-25T07:44:18.401Z,381.00
2023-02-25T07:45:18.378Z,381.00
2023-02-25T07:46:18.412Z,380.00
2023-02-25T07:47:18.350Z,378.00
2023-02-25T07:48:18.385Z,380.00
2023-02-25T07:49:18.316Z,378.00
2023-02-25T07:50:18.323Z,378.00
2023-02-25T07:51:18.312Z,378.00
2023-02-25T07:52:18.281Z,375.00
2023-02-25T07:53:18.281Z,375.00
2023-02-25T07:54:18.256Z,374.00
2023-02-25T07:55:18.254Z,374.00
2023-02-25T07:56:18.236Z,373.00
2023-02-25T07:57:18.209Z,376.00
2023-02-25T07:58:18.249Z,377.00
2023-02-25T07:59:18.222Z,376.00
2023-02-25T08:00:18.193Z,374.00
2023-02-25T08:01:18.202Z,371.00
2023-02-25T08:02:18.159Z,373.00
2023-02-25T08:03:18.165Z,371.00
2023-02-25T08:04:18.190Z,371.00
2023-02-25T08:05:18.121Z,373.00
2023-02-25T08:06:18.127Z,374.00
2023-02-25T08:07:18.098Z,374.00
2023-02-25T08:08:18.148Z,374.00
2023-02-25T08:09:18.105Z,373.00
2023-02-25T08:10:18.091Z,374.00
2023-02-25T08:11:18.086Z,377.00
2023-02-25T08:12:18.062Z,376.00
2023-02-25T08:13:18.087Z,375.00
2023-02-25T08:14:18.058Z,374.00
2023-02-25T08:15:18.068Z,374.00
2023-02-25T08:16:18.144Z,373.00
2023-02-25T08:17:18.024Z,376.00
2023-02-25T08:18:18.067Z,374.00
2023-02-25T08:19:18.014Z,376.00
2023-02-25T08:20:18.012Z,375.00
2023-02-25T08:21:18.095Z,377.00
2023-02-25T08:22:17.991Z,378.00
2023-02-25T08:23:17.992Z,378.00
2023-02-25T08:24:17.953Z,376.00
2023-02-25T08:25:17.960Z,375.00
2023-02-25T08:26:17.959Z,374.00
2023-02-25T08:27:17.933Z,373.00
2023-02-25T08:28:17.913Z,377.00
2023-02-25T08:29:17.922Z,377.00
2023-02-25T08:30:17.890Z,376.00
2023-02-25T08:31:18.005Z,374.00
2023-02-25T08:32:17.968Z,374.00
2023-02-25T08:33:17.831Z,374.00
2023-02-25T08:34:17.832Z,377.00
2023-02-25T08:35:17.814Z,379.00
2023-02-25T08:36:17.818Z,380.00
2023-02-25T08:37:17.766Z,377.00
2023-02-25T08:38:17.770Z,378.00
2023-02-25T08:39:17.739Z,379.00
2023-02-25T08:40:19.877Z,379.00
2023-02-25T08:41:17.708Z,378.00
2023-02-25T08:42:17.683Z,377.00
2023-02-25T08:43:17.676Z,377.00
2023-02-25T08:44:17.679Z,375.00
2023-02-25T08:45:17.654Z,374.00
2023-02-25T08:46:19.933Z,374.00
2023-02-25T08:47:17.610Z,372.00
2023-02-25T08:48:17.612Z,376.00
2023-02-25T08:49:17.593Z,377.00
2023-02-25T08:50:17.581Z,379.00
2023-02-25T08:51:17.544Z,380.00
2023-02-25T08:52:17.518Z,382.00
2023-02-25T08:53:17.512Z,380.00
2023-02-25T08:54:17.515Z,379.00
2023-02-25T08:55:17.484Z,379.00
2023-02-25T08:56:17.481Z,376.00
2023-02-25T08:57:17.464Z,375.00
2023-02-25T08:58:17.448Z,375.00
2023-02-25T08:59:17.466Z,376.00
2023-02-25T09:00:17.435Z,378.00
2023-02-25T09:01:17.465Z,379.00
2023-02-25T09:02:17.386Z,380.00
2023-02-25T09:03:17.399Z,381.00
2023-02-25T09:04:17.441Z,383.00
2023-02-25T09:05:19.599Z,381.00
2023-02-25T09:06:17.323Z,384.00
2023-02-25T09:07:17.344Z,384.00
2023-02-25T09:08:17.294Z,384.00
2023-02-25T09:09:17.312Z,384.00
2023-02-25T09:10:17.255Z,384.00
2023-02-25T09:11:17.272Z,382.00
2023-02-25T09:12:17.214Z,382.00
2023-02-25T09:13:17.225Z,383.00
2023-02-25T09:14:17.228Z,381.00
2023-02-25T09:15:17.162Z,383.00
2023-02-25T09:16:19.861Z,384.00
2023-02-25T09:17:17.132Z,385.00
2023-02-25T09:18:17.112Z,382.00
2023-02-25T09:19:17.109Z,379.00
2023-02-25T09:20:17.108Z,377.00
2023-02-25T09:21:17.076Z,376.00
2023-02-25T09:22:17.066Z,377.00
2023-02-25T09:23:17.035Z,378.00
2023-02-25T09:24:17.005Z,380.00
2023-02-25T09:25:17.004Z,379.00
2023-02-25T09:26:16.987Z,379.00
2023-02-25T09:27:16.950Z,381.00
2023-02-25T09:28:16.924Z,381.00
2023-02-25T09:29:16.911Z,383.00
2023-02-25T09:30:16.921Z,382.00
2023-02-25T09:31:17.019Z,381.00
2023-02-25T09:32:16.972Z,382.00
2023-02-25T09:33:16.845Z,380.00
2023-02-25T09:34:16.849Z,381.00
2023-02-25T09:35:16.845Z,379.00
2023-02-25T09:36:16.797Z,380.00
2023-02-25T09:37:16.763Z,383.00
2023-02-25T09:38:16.772Z,379.00
2023-02-25T09:39:16.734Z,378.00
2023-02-25T09:40:16.720Z,379.00
2023-02-25T09:41:16.689Z,379.00
2023-02-25T09:42:16.666Z,379.00
2023-02-25T09:43:16.643Z,376.00
2023-02-25T09:44:16.638Z,375.00
2023-02-25T09:45:16.630Z,373.00
2023-02-25T09:46:16.651Z,372.00
2023-02-25T09:47:16.612Z,370.00
2023-02-25T09:48:16.567Z,372.00
2023-02-25T09:49:16.545Z,372.00
2023-02-25T09:50:16.539Z,372.00
2023-02-25T09:51:16.492Z,373.00
2023-02-25T09:52:16.474Z,372.00
2023-02-25T09:53:16.457Z,372.00
2023-02-25T09:54:16.424Z,373.00
2023-02-25T09:55:16.419Z,373.00
2023-02-25T09:56:16.381Z,375.00
2023-02-25T09:57:16.369Z,377.00
2023-02-25T09:58:16.358Z,378.00
2023-02-25T09:59:16.343Z,377.00
2023-02-25T10:00:16.333Z,377.00
2023-02-25T10:01:16.297Z,377.00
2023-02-25T10:02:16.425Z,378.00
2023-02-25T10:03:16.335Z,375.00
2023-02-25T10:04:16.217Z,379.00
2023-02-25T10:05:16.239Z,378.00
2023-02-25T10:06:16.193Z,381.00
2023-02-25T10:07:16.191Z,379.00
2023-02-25T10:08:16.151Z,380.00
2023-02-25T10:09:16.149Z,382.00
2023-02-25T10:10:16.127Z,379.00
2023-02-25T10:11:16.144Z,378.00
2023-02-25T10:12:16.091Z,379.00
2023-02-25T10:13:16.111Z,380.00
2023-02-25T10:14:16.050Z,383.00
2023-02-25T10:15:16.044Z,382.00
2023-02-25T10:16:16.086Z,383.00
2023-02-25T10:17:15.990Z,384.00
2023-02-25T10:18:15.960Z,384.00
2023-02-25T10:19:15.962Z,386.00
2023-02-25T10:20:15.920Z,387.00
2023-02-25T10:21:15.927Z,388.00
2023-02-25T10:22:15.885Z,387.00
2023-02-25T10:23:15.845Z,386.00
2023-02-25T10:24:15.830Z,387.00
2023-02-25T10:25:15.809Z,386.00
2023-02-25T10:26:15.804Z,385.00
2023-02-25T10:27:15.783Z,385.00
2023-02-25T10:29:15.748Z,387.00
2023-02-25T11:56:13.695Z,385.00
2023-02-25T11:57:13.709Z,387.00
2023-02-25T11:58:13.677Z,390.00
2023-02-25T11:59:13.635Z,388.00
2023-02-25T12:00:13.628Z,387.00
2023-02-25T12:01:13.592Z,388.00
2023-02-25T12:02:13.600Z,389.00
2023-02-25T12:03:13.535Z,387.00
2023-02-25T12:04:13.524Z,388.00
2023-02-25T12:05:13.505Z,391.00
2023-02-25T12:06:13.488Z,391.00
2023-02-25T12:07:13.500Z,390.00
2023-02-25T12:08:14.377Z,389.00
2023-02-25T12:09:13.443Z,387.00
2023-02-25T12:10:13.401Z,387.00
2023-02-25T12:11:13.394Z,387.00
2023-02-25T12:12:13.414Z,386.00
2023-02-25T12:13:13.352Z,386.00
2023-02-25T12:14:13.324Z,386.00
2023-02-25T12:15:13.322Z,387.00
2023-02-25T12:16:13.339Z,390.00
2023-02-25T12:17:13.273Z,392.00
2023-02-25T12:18:13.249Z,393.00
2023-02-25T12:19:13.238Z,392.00
2023-02-25T12:20:13.232Z,390.00
2023-02-25T12:21:13.192Z,391.00
2023-02-25T12:22:13.208Z,393.00
2023-02-25T12:23:13.172Z,394.00
2023-02-25T12:24:13.151Z,394.00
2023-02-25T12:25:13.112Z,393.00
2023-02-25T12:26:13.129Z,391.00
2023-02-25T12:27:13.085Z,391.00
2023-02-25T12:28:13.054Z,391.00
2023-02-25T12:29:13.047Z,393.00
2023-02-25T12:30:13.015Z,394.00
2023-02-25T12:31:13.058Z,393.00
2023-02-25T12:32:13.019Z,392.00
2023-02-25T12:33:12.965Z,393.00
2023-02-25T12:34:12.946Z,397.00
2023-02-25T12:35:12.904Z,398.00
2023-02-25T12:36:12.894Z,397.00
2023-02-25T12:37:12.851Z,398.00
2023-02-25T12:38:12.847Z,397.00
2023-02-25T12:39:12.812Z,392.00
2023-02-25T12:40:12.771Z,395.00
2023-02-25T12:41:12.760Z,391.00
2023-02-25T12:42:12.720Z,391.00
2023-02-25T12:43:12.729Z,390.00
2023-02-25T12:44:12.692Z,389.00
2023-02-25T12:45:12.647Z,390.00
2023-02-25T12:46:12.660Z,390.00
2023-02-25T12:47:12.591Z,390.00
2023-02-25T12:48:12.574Z,395.00
2023-02-25T12:49:12.537Z,396.00
2023-02-25T12:50:12.523Z,396.00
2023-02-25T12:51:12.503Z,394.00
2023-02-25T12:52:12.472Z,392.00
2023-02-25T12:53:12.477Z,391.00
2023-02-25T12:54:12.424Z,393.00
2023-02-25T12:55:12.385Z,392.00
2023-02-25T12:56:12.359Z,392.00
2023-02-25T12:57:12.335Z,393.00
2023-02-25T12:58:12.321Z,393.00
2023-02-25T12:59:12.278Z,391.00
2023-02-25T13:00:12.250Z,392.00
2023-02-25T13:01:12.260Z,391.00
2023-02-25T13:02:12.167Z,391.00
2023-02-25T13:03:12.158Z,389.00
2023-02-25T13:04:12.185Z,386.00
2023-02-25T13:05:12.078Z,388.00
2023-02-25T13:06:12.044Z,387.00
2023-02-25T13:07:12.025Z,388.00
2023-02-25T13:08:12.020Z,389.00
2023-02-25T13:09:11.977Z,390.00
2023-02-25T13:10:11.916Z,387.00
2023-02-25T13:11:11.871Z,385.00
2023-02-25T13:12:12.614Z,386.00
2023-02-25T13:13:11.824Z,388.00
2023-02-25T13:14:11.791Z,391.00
2023-02-25T13:15:11.732Z,391.00
2023-02-25T13:16:11.727Z,389.00
2023-02-25T13:17:11.671Z,387.00
2023-02-25T13:18:11.671Z,389.00
2023-02-25T13:19:11.627Z,390.00
2023-02-25T13:20:11.604Z,391.00
2023-02-25T13:21:12.054Z,393.00
2023-02-25T13:22:11.536Z,393.00
2023-02-25T13:23:11.496Z,394.00
2023-02-25T13:24:11.506Z,394.00
2023-02-25T13:25:11.426Z,396.00
2023-02-25T13:26:11.419Z,396.00
2023-02-25T13:27:11.390Z,397.00
2023-02-25T13:28:11.348Z,396.00
2023-02-25T13:29:11.360Z,396.00
2023-02-25T13:30:11.429Z,396.00
2023-02-25T13:31:11.285Z,396.00
2023-02-25T13:32:11.377Z,397.00
2023-02-25T13:33:11.251Z,395.00
2023-02-25T13:34:11.259Z,395.00
2023-02-25T13:35:11.190Z,394.00
2023-02-25T13:36:11.184Z,395.00
2023-02-25T13:37:11.146Z,394.00
2023-02-25T13:38:11.106Z,395.00
2023-02-25T13:39:11.113Z,395.00
2023-02-25T13:40:11.155Z,393.00
2023-02-25T13:41:11.064Z,392.00
2023-02-25T13:42:11.045Z,392.00
2023-02-25T13:43:11.027Z,395.00
2023-02-25T13:44:11.041Z,394.00
2023-02-25T13:45:10.971Z,393.00
2023-02-25T13:46:11.008Z,394.00
2023-02-25T13:47:10.948Z,394.00
2023-02-25T13:48:10.925Z,394.00
2023-02-25T13:49:10.946Z,393.00
2023-02-25T13:50:10.869Z,394.00
2023-02-25T13:51:10.869Z,396.00
2023-02-25T13:52:10.830Z,395.00
2023-02-25T13:53:10.981Z,395.00
2023-02-25T13:54:10.790Z,393.00
2023-02-25T13:55:10.757Z,394.00